Texarkana, AR

2:47 AM CDT on October 24, 2014 (GMT -0500)
Texarkana Regional-Webb | Change Station
CLOSE
Current Station
Airport
Location: Texarkana,
Elevation: 387 ft
Nearby Weather Stations

Elev 387 ft 33.45 °N, 93.99 °W | Updated 54 minutes ago

Clear
Clear
51 °F
Feels Like 51 °F
N
0
Wind Variable Wind from North

Today
High -- | Low -- °F
--% Chance of Precip.
Yesterday
High -- | Low -- °F
Precip. -- in
7:27 AM 6:31 PM
New Moon, 0% visible
Pressure 30.14 in
Visibility 10.0 miles
Clouds Clear
Dew Point 49 °F
Humidity 92%
Rainfall 0.00 in
Snow Depth Not available.
UV 0 out of 12
Pollen 2.20 out of 12
Air Quality Not available.
Flu Activity Sporadic
METAR KTXK 240653Z AUTO 00000KT 10SM CLR 11/09 A3015 RMK AO2 SLP206 T01060094

More Conditions Fewer Conditions

Pressure 30.14 in
Visibility 10.0 miles
Clouds Clear
Dew Point 49 °F
Humidity 92%
Rainfall 0.00 in
Snow Depth Not available.
UV 0 out of 12
Pollen 2.20 out of 12
Air Quality Not available.
Flu Activity Sporadic
METAR KTXK 240653Z AUTO 00000KT 10SM CLR 11/09 A3015 RMK AO2 SLP206 T01060094

More Conditions Fewer Conditions

10-Day Weather Forecast

Almanac

Astronomy

Oct. 24, 2014 Rise Set
Actual Time 7:27 AM CDT 6:31 PM CDT
Civil Twilight 7:02 AM CDT 6:57 PM CDT
Nautical Twilight 6:33 AM CDT 7:26 PM CDT
Astronomical Twilight 6:04 AM CDT 7:55 PM CDT
Moon 8:06 AM CDT 7:14 PM CDT
Length of Visible Light 11h 54m
Length of Day
11h 04m
Tomorrow will be 1m 54s shorter.
New Moon, 0% of the Moon is Illuminated
Today
New Moon
Oct 30
First Quarter
Nov 6
Full
Nov 14
Last Quarter
Nov 22
New

Today's Extremes

State Highs State Lows

Community

WunderPhotos

Upload Photos

1,764,512 photos uploaded!

WunderBlogs® & News

Nearby

Snow Depth

Station Depth Elevation
No new snow has been reported.

Earthquake Activity

City Distance Mag. Time & Date
No recent earthquake activity has been reported nearby.
Minimum magnitude displayed is 2.5.

Coastal Water Temperatures

Place Temperature
No Stations Reporting

Nearby Weather Stations